Time;durP1;ratioP1;P1;durP2;ratioP2;P2;SDS_P1;SDS_P2;PMS_P1;PMS_P2;Temp;Humidity;BMP_temperature;BMP_pressure;BME280_temperature;BME280_humidity;BME280_pressure;Samples;Min_cycle;Max_cycle;Signal;HPM_P1;HPM_P2
2023/04/26 00:00:30;;;;;;;8.20;7.90;;;19.50;52.60;;;;;;5052746;28;20806;-62
2023/04/26 00:02:59;;;;;;;7.87;7.67;;;19.50;52.60;;;;;;5052604;28;20448;-62
2023/04/26 00:05:28;;;;;;;8.47;7.97;;;19.50;52.60;;;;;;5052531;28;20448;-63
2023/04/26 00:07:55;;;;;;;8.23;8.10;;;19.50;52.60;;;;;;5059551;28;20445;-63
2023/04/26 00:10:22;;;;;;;8.13;7.93;;;19.40;52.60;;;;;;5060699;28;20527;-62
2023/04/26 00:12:49;;;;;;;8.53;8.23;;;19.40;52.60;;;;;;5052539;28;20487;-62
2023/04/26 00:15:16;;;;;;;8.07;7.87;;;19.40;52.60;;;;;;5052392;28;20502;-62
2023/04/26 00:17:43;;;;;;;9.53;9.17;;;19.40;52.60;;;;;;5057402;28;20642;-62
2023/04/26 00:20:12;;;;;;;8.23;8.03;;;19.40;52.60;;;;;;5072219;28;20530;-62
2023/04/26 00:22:40;;;;;;;7.87;7.67;;;19.40;52.60;;;;;;5072187;28;20455;-61
2023/04/26 00:25:08;;;;;;;8.20;8.00;;;19.40;52.70;;;;;;5068775;28;20558;-62
2023/04/26 00:27:35;;;;;;;8.40;8.00;;;19.30;52.60;;;;;;5072013;28;20471;-62
2023/04/26 00:30:01;;;;;;;8.30;7.70;;;19.40;52.70;;;;;;5072120;28;20481;-62
2023/04/26 00:32:29;;;;;;;8.30;8.10;;;19.30;52.60;;;;;;5071482;28;20479;-62
2023/04/26 00:34:56;;;;;;;8.10;7.90;;;19.30;52.60;;;;;;5063646;28;20546;-62
2023/04/26 00:37:23;;;;;;;8.50;8.27;;;19.30;52.60;;;;;;5051724;28;20515;-62
2023/04/26 00:39:51;;;;;;;8.20;8.00;;;19.30;52.70;;;;;;5052086;28;20455;-59
2023/04/26 00:42:19;;;;;;;8.50;8.30;;;19.30;52.60;;;;;;5052012;28;20733;-62
2023/04/26 00:44:46;;;;;;;8.33;8.13;;;19.30;52.70;;;;;;5052736;28;20472;-61
2023/04/26 00:47:13;;;;;;;8.90;8.60;;;19.30;52.70;;;;;;5051670;28;20468;-63
2023/04/26 00:49:41;;;;;;;8.30;7.70;;;19.30;52.70;;;;;;5051831;28;20486;-62
2023/04/26 00:52:08;;;;;;;8.47;8.17;;;19.20;52.70;;;;;;5051749;28;20943;-62
2023/04/26 00:54:35;;;;;;;8.30;8.10;;;19.20;52.70;;;;;;5069844;28;20482;-62
2023/04/26 00:57:05;;;;;;;7.50;7.30;;;19.20;52.70;;;;;;5071460;28;20522;-59
2023/04/26 00:59:34;;;;;;;8.67;8.47;;;19.20;52.70;;;;;;5071609;28;21000;-60
2023/04/26 01:02:02;;;;;;;8.27;8.07;;;19.20;52.80;;;;;;5071636;28;21017;-61
2023/04/26 01:04:29;;;;;;;8.30;8.10;;;19.20;52.80;;;;;;5054177;28;20499;-62
2023/04/26 01:06:57;;;;;;;8.90;8.40;;;19.20;52.80;;;;;;5051431;28;20472;-62
2023/04/26 01:09:23;;;;;;;8.57;8.37;;;19.20;52.80;;;;;;5051620;28;20479;-62
2023/04/26 01:11:52;;;;;;;8.70;8.50;;;19.20;52.80;;;;;;5051486;28;20477;-62
2023/04/26 01:14:21;;;;;;;7.73;7.63;;;19.10;52.70;;;;;;5066639;28;20491;-60
2023/04/26 01:16:48;;;;;;;8.53;8.33;;;19.10;52.70;;;;;;5071239;28;20482;-62
2023/04/26 01:19:15;;;;;;;8.50;8.30;;;19.10;52.80;;;;;;5071440;28;20508;-62
2023/04/26 01:21:43;;;;;;;8.33;8.10;;;19.10;52.80;;;;;;5071335;28;20534;-62
2023/04/26 01:24:13;;;;;;;8.10;7.90;;;19.10;52.80;;;;;;5057178;28;20464;-62
2023/04/26 01:26:44;;;;;;;8.10;7.90;;;19.10;52.80;;;;;;5051251;28;20535;-62
2023/04/26 01:29:15;;;;;;;8.17;8.03;;;19.10;52.80;;;;;;5051288;28;20805;-62
2023/04/26 01:31:42;;;;;;;8.10;7.90;;;19.00;52.80;;;;;;5051368;28;20480;-61
2023/04/26 01:34:08;;;;;;;7.73;7.53;;;19.00;52.80;;;;;;5064372;28;20904;-62
2023/04/26 01:36:36;;;;;;;8.33;8.13;;;19.00;52.80;;;;;;5071050;28;20475;-61
2023/04/26 01:39:03;;;;;;;9.10;8.90;;;19.00;52.90;;;;;;5071312;28;20435;-62
2023/04/26 01:41:32;;;;;;;8.50;8.30;;;19.00;52.80;;;;;;5065836;28;20445;-62
2023/04/26 01:43:59;;;;;;;7.90;7.70;;;19.00;52.80;;;;;;5051354;28;21012;-62
2023/04/26 01:46:26;;;;;;;8.60;8.40;;;19.00;52.90;;;;;;5056344;28;20479;-62
2023/04/26 01:48:53;;;;;;;9.30;9.00;;;19.00;52.90;;;;;;5054882;28;20486;-62
2023/04/26 01:51:20;;;;;;;8.33;8.13;;;19.00;52.90;;;;;;5058366;28;20871;-60
2023/04/26 01:53:47;;;;;;;8.40;8.20;;;19.00;52.90;;;;;;5075061;28;20552;-62
2023/04/26 01:56:14;;;;;;;8.27;8.07;;;19.00;52.90;;;;;;5075098;28;20451;-60
2023/04/26 01:58:42;;;;;;;8.20;8.00;;;19.00;52.90;;;;;;5074729;28;20926;-61
2023/04/26 02:01:10;;;;;;;8.10;7.90;;;18.90;52.80;;;;;;5073225;28;20475;-62
2023/04/26 02:03:36;;;;;;;8.40;8.20;;;18.90;52.80;;;;;;5054966;28;20522;-62
2023/04/26 02:06:04;;;;;;;8.27;8.07;;;18.90;52.80;;;;;;5054792;28;20983;-62
2023/04/26 02:08:31;;;;;;;8.07;7.87;;;18.90;52.80;;;;;;5054602;28;20483;-62
2023/04/26 02:10:58;;;;;;;7.83;7.70;;;18.90;52.90;;;;;;5054731;28;20483;-62
2023/04/26 02:13:25;;;;;;;8.33;8.13;;;18.90;52.90;;;;;;5074472;28;20554;-62
2023/04/26 02:15:54;;;;;;;8.07;7.80;;;18.90;52.80;;;;;;5074699;28;20447;-62
2023/04/26 02:18:21;;;;;;;8.47;8.17;;;18.90;52.90;;;;;;5074417;28;20518;-61
2023/04/26 02:20:48;;;;;;;7.60;7.40;;;18.90;52.90;;;;;;5074548;28;20802;-62
2023/04/26 02:23:15;;;;;;;8.33;8.03;;;18.90;52.90;;;;;;5055906;28;20483;-61
2023/04/26 02:25:45;;;;;;;8.17;7.97;;;18.90;52.90;;;;;;5054468;28;20448;-62
2023/04/26 02:28:12;;;;;;;7.93;7.73;;;18.90;52.90;;;;;;5054301;28;20871;-62
2023/04/26 02:30:38;;;;;;;8.40;8.17;;;18.90;52.90;;;;;;5064631;28;20482;-61
2023/04/26 02:33:07;;;;;;;8.40;8.20;;;18.80;52.90;;;;;;5074235;28;20482;-62
2023/04/26 02:35:35;;;;;;;8.33;8.13;;;18.80;52.90;;;;;;5074291;28;20462;-62
2023/04/26 02:38:01;;;;;;;8.60;8.40;;;18.80;52.90;;;;;;5073936;28;20478;-63
2023/04/26 02:40:29;;;;;;;8.37;8.17;;;18.80;52.90;;;;;;5065342;28;20476;-60
2023/04/26 02:42:56;;;;;;;8.30;8.10;;;18.80;52.90;;;;;;5054115;28;20447;-62
2023/04/26 02:45:23;;;;;;;8.97;8.67;;;18.80;52.90;;;;;;5054069;28;20947;-62
2023/04/26 02:47:50;;;;;;;9.50;9.20;;;18.80;52.90;;;;;;5054037;28;20475;-62
2023/04/26 02:50:18;;;;;;;8.83;8.63;;;18.80;52.90;;;;;;5074045;28;20954;-62
2023/04/26 02:52:45;;;;;;;8.40;8.20;;;18.80;52.90;;;;;;5074027;28;20447;-62
2023/04/26 02:55:13;;;;;;;8.83;8.40;;;18.80;52.90;;;;;;5073693;28;20494;-62
2023/04/26 02:57:39;;;;;;;9.10;8.80;;;18.80;52.90;;;;;;5060028;28;20831;-61
2023/04/26 03:00:07;;;;;;;8.13;7.93;;;18.80;52.90;;;;;;5053955;28;20480;-61
2023/04/26 03:02:35;;;;;;;7.80;7.70;;;18.70;52.90;;;;;;5033866;28;20441;-62
2023/04/26 03:05:02;;;;;;;8.77;8.57;;;18.70;52.90;;;;;;5033713;28;20473;-62
2023/04/26 03:07:31;;;;;;;8.17;7.97;;;18.70;52.90;;;;;;5055482;28;20446;-62
2023/04/26 03:09:59;;;;;;;8.20;8.00;;;18.70;52.90;;;;;;5073717;28;20512;-62
2023/04/26 03:12:26;;;;;;;8.73;8.43;;;18.70;52.90;;;;;;5073639;28;20497;-62
2023/04/26 03:14:54;;;;;;;8.30;8.10;;;18.70;52.90;;;;;;5073465;28;20547;-62
2023/04/26 03:17:21;;;;;;;7.43;7.30;;;18.70;52.90;;;;;;5071578;28;20570;-61
2023/04/26 03:19:47;;;;;;;8.50;8.30;;;18.70;52.90;;;;;;5073463;28;20443;-62
2023/04/26 03:22:16;;;;;;;8.40;8.20;;;18.70;52.90;;;;;;5073591;28;20580;-62
2023/04/26 03:24:46;;;;;;;8.27;8.07;;;18.70;52.90;;;;;;5073327;28;20463;-62
2023/04/26 03:27:13;;;;;;;8.50;8.20;;;18.70;52.90;;;;;;5067493;28;20479;-61
2023/04/26 03:29:40;;;;;;;7.97;7.77;;;18.70;52.90;;;;;;5053264;28;20475;-61
2023/04/26 03:32:07;;;;;;;8.00;7.80;;;18.60;52.90;;;;;;5053308;28;20480;-62
2023/04/26 03:34:33;;;;;;;8.73;8.33;;;18.60;52.90;;;;;;5053087;28;20495;-62
2023/04/26 03:37:02;;;;;;;8.37;8.17;;;18.70;53.00;;;;;;5054061;28;20865;-62
2023/04/26 03:39:29;;;;;;;8.20;8.00;;;18.60;52.90;;;;;;5057403;28;20472;-62
2023/04/26 03:41:57;;;;;;;7.53;7.43;;;18.60;52.90;;;;;;5068720;28;20487;-61
2023/04/26 03:44:24;;;;;;;7.80;7.60;;;18.60;52.80;;;;;;5052944;28;20884;-62
2023/04/26 03:46:51;;;;;;;7.80;7.60;;;18.60;53.00;;;;;;5054666;28;20539;-62
2023/04/26 03:49:18;;;;;;;7.90;7.70;;;18.60;53.10;;;;;;5073340;28;20475;-63
2023/04/26 03:51:44;;;;;;;7.50;7.30;;;18.60;53.10;;;;;;5073477;28;20993;-63
2023/04/26 03:54:11;;;;;;;7.50;7.30;;;18.60;53.10;;;;;;5066698;28;20912;-62
2023/04/26 03:56:38;;;;;;;7.93;7.53;;;18.60;53.10;;;;;;5071358;28;20894;-62
2023/04/26 03:59:08;;;;;;;7.70;7.50;;;18.60;53.10;;;;;;5072980;28;20685;-62
2023/04/26 04:01:35;;;;;;;8.43;8.10;;;18.60;53.20;;;;;;5073186;28;20521;-63
2023/04/26 04:04:02;;;;;;;9.10;8.90;;;18.60;53.20;;;;;;5067143;28;20468;-63
2023/04/26 04:06:29;;;;;;;8.50;8.30;;;18.60;53.20;;;;;;5052584;28;20452;-63
2023/04/26 04:08:56;;;;;;;9.20;8.70;;;18.60;53.20;;;;;;5052281;28;20449;-63
2023/04/26 04:11:23;;;;;;;10.27;9.60;;;18.60;53.70;;;;;;5052583;28;20452;-62
2023/04/26 04:13:50;;;;;;;9.97;9.40;;;18.60;55.20;;;;;;5053450;28;20506;-62
2023/04/26 04:16:18;;;;;;;11.97;10.73;;;18.70;57.20;;;;;;5053017;28;20484;-63
2023/04/26 04:18:45;;;;;;;11.97;11.07;;;18.70;59.00;;;;;;5052653;28;20587;-63
2023/04/26 04:21:12;;;;;;;13.33;10.83;;;18.70;62.70;;;;;;5052829;28;20498;-63
2023/04/26 04:23:39;;;;;;;13.43;12.03;;;18.70;66.70;;;;;;5053178;28;20547;-63
2023/04/26 04:26:06;;;;;;;12.80;11.63;;;18.80;74.30;;;;;;5072741;28;20525;-62
2023/04/26 04:28:34;;;;;;;15.47;13.20;;;18.80;76.30;;;;;;5072029;28;20475;-62
2023/04/26 04:31:01;;;;;;;13.57;10.70;;;18.80;77.70;;;;;;5072056;28;20458;-62
2023/04/26 04:33:29;;;;;;;11.17;10.03;;;18.70;78.00;;;;;;5064895;28;20464;-67
2023/04/26 04:35:56;;;;;;;11.57;10.43;;;18.70;79.40;;;;;;5069190;28;20877;-66
2023/04/26 04:38:23;;;;;;;12.63;9.90;;;18.70;79.60;;;;;;5070434;28;20522;-66
2023/04/26 04:40:50;;;;;;;11.73;10.73;;;18.70;79.80;;;;;;5071940;28;20453;-66
2023/04/26 04:43:17;;;;;;;12.53;10.60;;;18.70;78.60;;;;;;5071690;28;20499;-66
2023/04/26 04:45:43;;;;;;;11.00;10.30;;;18.70;77.10;;;;;;5071910;28;20474;-67
2023/04/26 04:48:10;;;;;;;12.30;10.20;;;18.70;76.60;;;;;;5071524;28;20475;-67
2023/04/26 04:50:40;;;;;;;11.47;9.43;;;18.70;76.50;;;;;;5071790;28;20522;-67
2023/04/26 04:53:08;;;;;;;13.57;10.10;;;18.70;75.20;;;;;;5071586;28;20455;-67
2023/04/26 04:55:36;;;;;;;10.97;10.07;;;18.70;74.40;;;;;;5071693;28;20439;-66
2023/04/26 04:58:04;;;;;;;10.93;9.93;;;18.70;73.60;;;;;;5071363;28;20862;-66
2023/04/26 05:00:31;;;;;;;10.00;9.50;;;18.60;73.10;;;;;;5071616;28;20501;-67
2023/04/26 05:02:58;;;;;;;12.00;10.53;;;18.60;72.00;;;;;;5071368;28;20974;-67
2023/04/26 05:05:24;;;;;;;13.50;12.30;;;18.60;71.50;;;;;;5071748;28;20479;-67
2023/04/26 05:07:53;;;;;;;10.00;9.50;;;18.60;70.90;;;;;;5071206;28;20471;-67
2023/04/26 05:10:20;;;;;;;10.80;10.00;;;18.60;70.40;;;;;;5071478;28;20447;-66
2023/04/26 05:12:47;;;;;;;10.80;10.13;;;18.60;69.90;;;;;;5071492;28;20483;-66
2023/04/26 05:15:14;;;;;;;10.03;9.50;;;18.60;69.30;;;;;;5071416;28;20495;-67
2023/04/26 05:17:42;;;;;;;11.43;10.43;;;18.60;68.90;;;;;;5071126;28;20451;-66
2023/04/26 05:20:10;;;;;;;11.23;10.10;;;18.60;68.30;;;;;;5070915;28;20877;-66
2023/04/26 05:22:38;;;;;;;10.23;9.43;;;18.60;67.70;;;;;;5071477;28;20540;-66
2023/04/26 05:25:09;;;;;;;11.60;10.83;;;18.60;67.30;;;;;;5071369;28;21043;-66
2023/04/26 05:27:37;;;;;;;10.80;10.27;;;18.60;66.90;;;;;;5071178;28;20453;-65
2023/04/26 05:30:04;;;;;;;9.87;9.20;;;18.50;66.50;;;;;;5071371;28;20952;-66
2023/04/26 05:32:31;;;;;;;14.10;13.13;;;18.50;66.10;;;;;;5071309;28;20479;-67
2023/04/26 05:34:58;;;;;;;10.17;9.47;;;18.50;65.80;;;;;;5071179;28;20495;-66
2023/04/26 05:37:25;;;;;;;10.03;9.50;;;18.50;65.50;;;;;;5071141;28;20439;-67
2023/04/26 05:39:52;;;;;;;11.57;10.73;;;18.50;65.20;;;;;;5071076;28;20571;-67
2023/04/26 05:42:20;;;;;;;11.03;10.43;;;18.50;65.00;;;;;;5071145;28;20479;-67
2023/04/26 05:44:47;;;;;;;10.00;9.50;;;18.50;64.70;;;;;;5071663;28;20873;-66
2023/04/26 05:47:14;;;;;;;9.60;9.00;;;18.50;64.50;;;;;;5070907;28;20508;-66
2023/04/26 05:49:41;;;;;;;9.70;9.10;;;18.50;64.20;;;;;;5071127;28;20471;-66
2023/04/26 05:52:08;;;;;;;9.87;9.27;;;18.50;64.10;;;;;;5071101;28;20447;-67
2023/04/26 05:54:35;;;;;;;10.03;9.50;;;18.50;63.80;;;;;;5071068;28;20494;-66
2023/04/26 05:57:02;;;;;;;11.07;10.47;;;18.40;63.40;;;;;;5070984;28;20451;-67
2023/04/26 05:59:31;;;;;;;10.10;9.70;;;18.40;63.20;;;;;;5071107;28;20506;-67
2023/04/26 06:01:58;;;;;;;10.93;10.40;;;18.40;63.00;;;;;;5071005;28;20482;-66
2023/04/26 06:04:25;;;;;;;11.10;10.30;;;18.40;62.80;;;;;;5070907;28;20463;-67
2023/04/26 06:06:52;;;;;;;10.20;9.90;;;18.40;62.70;;;;;;5070898;28;20467;-67
2023/04/26 06:09:19;;;;;;;11.07;10.37;;;18.40;62.50;;;;;;5070879;28;20474;-67
2023/04/26 06:11:46;;;;;;;11.07;10.13;;;18.40;62.20;;;;;;5070864;28;20479;-66
2023/04/26 06:14:13;;;;;;;10.13;9.73;;;18.40;62.00;;;;;;5070834;28;20827;-67
2023/04/26 06:16:41;;;;;;;10.37;9.93;;;18.40;61.80;;;;;;5070803;28;20471;-66
2023/04/26 06:19:08;;;;;;;10.10;9.60;;;18.40;61.60;;;;;;5070751;28;20475;-66
2023/04/26 06:21:35;;;;;;;10.27;9.77;;;18.40;61.50;;;;;;5070905;28;20530;-66
2023/04/26 06:24:02;;;;;;;11.63;10.97;;;18.40;61.30;;;;;;5071201;28;20505;-67
2023/04/26 06:26:30;;;;;;;10.03;9.63;;;18.40;61.00;;;;;;5072398;28;20458;-67
2023/04/26 06:28:57;;;;;;;11.73;10.90;;;18.40;61.00;;;;;;5073110;28;20501;-67
2023/04/26 06:31:24;;;;;;;10.37;10.07;;;18.40;61.60;;;;;;5074447;28;20486;-66
2023/04/26 06:33:52;;;;;;;10.23;9.80;;;18.40;60.70;;;;;;5075539;28;20525;-66
2023/04/26 06:36:19;;;;;;;10.20;9.90;;;18.30;60.40;;;;;;5075024;28;20877;-66
2023/04/26 06:38:46;;;;;;;10.37;10.00;;;18.40;60.40;;;;;;5074332;28;20515;-67
2023/04/26 06:41:13;;;;;;;10.53;9.80;;;18.30;60.20;;;;;;5074717;28;20475;-67
2023/04/26 06:43:40;;;;;;;9.80;9.40;;;18.30;60.10;;;;;;5074210;28;20506;-67
2023/04/26 06:46:07;;;;;;;10.37;9.60;;;18.30;59.90;;;;;;5074071;28;20439;-68
2023/04/26 06:48:34;;;;;;;10.23;9.83;;;18.30;59.80;;;;;;5073908;28;20447;-67
2023/04/26 06:51:07;;;;;;;10.47;10.00;;;18.40;59.80;;;;;;5074168;28;20482;-66
2023/04/26 06:53:34;;;;;;;10.80;9.70;;;18.30;59.70;;;;;;5074073;28;20843;-66
2023/04/26 06:56:01;;;;;;;9.07;8.83;;;18.30;59.60;;;;;;5073967;28;20475;-66
2023/04/26 06:58:27;;;;;;;9.70;9.40;;;18.30;59.50;;;;;;5073712;28;20562;-66
2023/04/26 07:00:54;;;;;;;9.80;9.30;;;18.30;59.40;;;;;;5073864;28;20949;-66
2023/04/26 07:03:21;;;;;;;9.90;9.50;;;18.30;59.30;;;;;;5073816;28;20498;-66
2023/04/26 07:05:48;;;;;;;9.17;8.87;;;18.30;59.30;;;;;;5073817;28;20490;-69
2023/04/26 07:08:17;;;;;;;9.73;9.23;;;18.30;59.30;;;;;;5073670;28;20478;-65
2023/04/26 07:10:44;;;;;;;9.20;8.80;;;18.30;59.20;;;;;;5073932;28;20941;-66
2023/04/26 07:13:10;;;;;;;9.53;8.97;;;18.30;59.20;;;;;;5073593;28;20493;-66
2023/04/26 07:15:37;;;;;;;9.57;9.27;;;18.30;59.10;;;;;;5074713;28;20478;-67
2023/04/26 07:18:04;;;;;;;10.30;9.90;;;18.30;59.00;;;;;;5074951;28;20952;-67
2023/04/26 07:20:31;;;;;;;9.13;8.83;;;18.30;59.00;;;;;;5074745;28;20510;-67
2023/04/26 07:22:58;;;;;;;9.60;9.20;;;18.20;58.90;;;;;;5074320;28;20479;-66
2023/04/26 07:25:26;;;;;;;9.37;9.00;;;18.30;58.90;;;;;;5074156;28;20483;-66
2023/04/26 07:27:53;;;;;;;9.20;8.80;;;18.30;58.80;;;;;;5073129;28;20475;-67
2023/04/26 07:30:20;;;;;;;9.03;8.73;;;18.20;58.70;;;;;;5073309;28;20481;-67
2023/04/26 07:32:47;;;;;;;10.10;9.70;;;18.20;58.70;;;;;;5073222;28;20506;-67
2023/04/26 07:35:14;;;;;;;9.67;9.20;;;18.20;58.70;;;;;;5073145;28;20498;-66
2023/04/26 07:37:42;;;;;;;8.97;8.67;;;18.20;58.60;;;;;;5072936;28;20447;-67
2023/04/26 07:40:12;;;;;;;10.10;9.80;;;18.20;58.50;;;;;;5073101;28;20590;-67
2023/04/26 07:42:40;;;;;;;9.70;9.50;;;18.20;58.50;;;;;;5072783;28;20837;-67
2023/04/26 07:45:08;;;;;;;9.83;9.50;;;18.20;58.40;;;;;;5072762;28;20506;-67
2023/04/26 07:47:35;;;;;;;9.53;9.27;;;18.20;58.40;;;;;;5072791;28;20482;-67
2023/04/26 07:50:02;;;;;;;10.30;10.00;;;18.20;58.30;;;;;;5072975;28;20467;-66
2023/04/26 07:52:29;;;;;;;9.20;9.00;;;18.20;58.30;;;;;;5072934;28;20471;-67
2023/04/26 07:54:56;;;;;;;9.70;9.30;;;18.20;58.20;;;;;;5072878;28;20494;-67
2023/04/26 07:57:23;;;;;;;10.33;9.67;;;18.20;58.10;;;;;;5072596;28;20526;-66
2023/04/26 07:59:51;;;;;;;9.87;9.57;;;18.20;58.10;;;;;;5072687;28;20479;-67
2023/04/26 08:02:18;;;;;;;9.87;9.60;;;18.20;58.00;;;;;;5072719;28;20486;-67
2023/04/26 08:04:51;;;;;;;10.03;9.70;;;18.20;58.00;;;;;;5072662;28;20506;-67
2023/04/26 08:07:18;;;;;;;10.17;9.80;;;18.20;57.90;;;;;;5072776;28;20623;-67
2023/04/26 08:09:45;;;;;;;9.97;9.63;;;18.20;57.90;;;;;;5072480;28;20493;-67
2023/04/26 08:12:12;;;;;;;10.20;9.90;;;18.20;57.80;;;;;;5072624;28;20444;-65
2023/04/26 08:14:39;;;;;;;10.23;9.93;;;18.20;57.80;;;;;;5072430;28;20551;-67
2023/04/26 08:17:09;;;;;;;9.40;9.20;;;18.20;57.80;;;;;;5072211;28;20497;-68
2023/04/26 08:19:36;;;;;;;10.90;10.50;;;18.20;57.70;;;;;;5072135;28;21017;-67
2023/04/26 08:22:03;;;;;;;10.50;10.20;;;18.20;57.70;;;;;;5072267;28;20474;-66
2023/04/26 08:24:30;;;;;;;10.10;9.70;;;18.20;57.60;;;;;;5072127;28;20977;-67
2023/04/26 08:26:57;;;;;;;9.73;9.40;;;18.20;57.60;;;;;;5072085;28;20985;-68
2023/04/26 08:29:24;;;;;;;9.97;9.67;;;18.20;57.60;;;;;;5072075;28;20512;-66
2023/04/26 08:31:51;;;;;;;9.57;9.27;;;18.20;57.60;;;;;;5072159;28;20508;-67
2023/04/26 08:34:20;;;;;;;9.70;9.50;;;18.10;57.50;;;;;;5072138;28;20498;-67
2023/04/26 08:36:47;;;;;;;9.97;9.57;;;18.20;57.50;;;;;;5071847;28;21448;-66
2023/04/26 08:39:14;;;;;;;9.30;9.00;;;18.20;57.50;;;;;;5071876;28;20927;-66
2023/04/26 08:41:44;;;;;;;9.50;9.30;;;18.20;57.40;;;;;;5071932;28;20443;-66
2023/04/26 08:44:11;;;;;;;9.30;9.10;;;18.10;57.40;;;;;;5071604;28;20467;-67
2023/04/26 08:46:43;;;;;;;9.93;9.13;;;18.10;57.30;;;;;;5071715;28;20470;-66
2023/04/26 08:49:32;;;;;;;9.57;9.30;;;18.10;57.30;;;;;;5071920;28;20478;-67
2023/04/26 08:52:00;;;;;;;9.73;9.53;;;18.20;57.30;;;;;;5071789;28;20439;-68
2023/04/26 08:54:28;;;;;;;9.50;9.20;;;18.20;57.30;;;;;;5070932;28;20923;-67
2023/04/26 08:56:56;;;;;;;9.03;8.80;;;18.10;57.10;;;;;;5071503;28;20481;-66
2023/04/26 08:59:23;;;;;;;9.53;9.30;;;18.10;57.10;;;;;;5071519;28;20566;-66
2023/04/26 09:01:50;;;;;;;9.97;9.67;;;18.10;57.10;;;;;;5071797;28;20539;-66
2023/04/26 09:04:17;;;;;;;9.40;9.20;;;18.10;57.10;;;;;;5071752;28;20494;-65
2023/04/26 09:06:46;;;;;;;9.77;9.50;;;18.10;57.00;;;;;;5071526;28;20481;-66
2023/04/26 09:09:17;;;;;;;9.50;9.20;;;18.10;57.00;;;;;;5071610;28;20482;-66
2023/04/26 09:11:54;;;;;;;9.10;8.90;;;18.10;56.90;;;;;;5071500;28;20443;-65
2023/04/26 09:14:22;;;;;;;9.53;9.30;;;18.10;56.90;;;;;;5071554;28;20466;-66
2023/04/26 09:16:48;;;;;;;9.73;9.53;;;18.20;57.00;;;;;;5071378;28;20478;-66
2023/04/26 09:19:16;;;;;;;9.07;8.87;;;18.10;56.90;;;;;;5071341;28;20968;-66
2023/04/26 09:21:45;;;;;;;9.30;9.00;;;18.20;57.00;;;;;;5071432;28;20477;-66
2023/04/26 09:24:13;;;;;;;9.97;9.73;;;18.20;56.90;;;;;;5071517;28;20546;-65
2023/04/26 09:26:39;;;;;;;9.30;9.10;;;18.10;56.80;;;;;;5071208;28;20474;-66
2023/04/26 09:29:15;;;;;;;9.60;9.40;;;18.20;56.90;;;;;;5071301;28;20462;-66
2023/04/26 09:31:44;;;;;;;9.70;9.50;;;18.10;56.80;;;;;;5071387;28;20494;-66
2023/04/26 09:34:11;;;;;;;9.90;9.60;;;18.10;56.70;;;;;;5071320;28;20467;-66
2023/04/26 09:36:50;;;;;;;9.60;9.40;;;18.10;56.70;;;;;;5071357;28;20472;-65
2023/04/26 09:39:36;;;;;;;9.73;9.43;;;18.10;56.70;;;;;;5071187;28;21045;-65
2023/04/26 09:42:04;;;;;;;10.33;10.03;;;18.10;56.60;;;;;;5071242;28;20474;-65
2023/04/26 09:44:31;;;;;;;9.80;9.50;;;18.10;56.60;;;;;;5071095;28;20546;-67
2023/04/26 09:47:00;;;;;;;9.93;9.63;;;18.10;56.70;;;;;;5071084;28;20450;-66
2023/04/26 09:49:28;;;;;;;9.60;9.40;;;18.10;57.10;;;;;;5071100;28;20448;-66
2023/04/26 09:52:06;;;;;;;10.40;10.10;;;18.10;56.50;;;;;;5071236;28;20475;-66
2023/04/26 09:54:41;;;;;;;10.20;9.90;;;18.10;56.50;;;;;;5070951;28;20574;-66
2023/04/26 09:57:08;;;;;;;9.73;9.37;;;18.10;56.50;;;;;;5070983;28;20483;-66
2023/04/26 09:59:43;;;;;;;9.50;9.30;;;18.10;56.50;;;;;;5070960;28;20639;-66
2023/04/26 10:02:15;;;;;;;10.50;10.20;;;18.10;56.50;;;;;;5071081;28;20529;-66
2023/04/26 10:04:45;;;;;;;10.10;9.80;;;18.10;56.40;;;;;;5070995;28;20466;-66
2023/04/26 10:07:15;;;;;;;9.40;9.20;;;18.10;56.40;;;;;;5074900;28;20443;-66
2023/04/26 10:09:43;;;;;;;10.17;9.87;;;18.10;56.50;;;;;;5074790;28;20442;-65
2023/04/26 10:12:12;;;;;;;9.20;8.97;;;18.10;56.40;;;;;;5074799;28;20474;-65
2023/04/26 10:14:40;;;;;;;9.10;8.90;;;18.10;56.40;;;;;;5074847;28;20463;-66
2023/04/26 10:17:07;;;;;;;9.63;9.43;;;18.10;56.30;;;;;;5074457;28;20949;-65
2023/04/26 10:19:35;;;;;;;9.80;9.53;;;18.10;56.30;;;;;;5074542;28;20516;-65
2023/04/26 10:22:07;;;;;;;9.60;9.40;;;18.10;56.30;;;;;;5074680;28;20443;-65
2023/04/26 10:24:36;;;;;;;9.43;9.13;;;18.10;56.20;;;;;;5074417;28;20494;-65
2023/04/26 10:27:04;;;;;;;9.37;8.97;;;18.10;56.20;;;;;;5074377;28;20490;-66
2023/04/26 10:30:06;;;;;;;9.50;9.20;;;18.10;56.20;;;;;;5074518;28;20451;-65
2023/04/26 10:32:33;;;;;;;10.00;9.60;;;18.10;56.20;;;;;;5074373;28;20451;-65
2023/04/26 10:35:11;;;;;;;9.73;9.43;;;18.10;56.10;;;;;;5074287;28;20885;-64
2023/04/26 10:37:57;;;;;;;9.67;9.43;;;18.10;56.20;;;;;;5074170;28;20466;-66
2023/04/26 10:40:28;;;;;;;9.27;9.07;;;18.10;56.20;;;;;;5074017;28;20565;-66
2023/04/26 10:43:28;;;;;;;9.30;9.10;;;18.10;56.10;;;;;;5075015;28;20530;-65
2023/04/26 10:45:56;;;;;;;9.77;9.27;;;18.10;56.10;;;;;;5074290;28;20471;-65
2023/04/26 10:48:28;;;;;;;9.90;9.60;;;18.10;56.00;;;;;;5073944;28;20788;-65
2023/04/26 10:51:10;;;;;;;9.50;9.30;;;18.10;56.00;;;;;;5074249;28;20471;-65
2023/04/26 10:53:58;;;;;;;9.53;9.33;;;18.10;56.00;;;;;;5073872;28;20467;-66
2023/04/26 10:56:54;;;;;;;9.53;9.33;;;18.10;56.00;;;;;;5073950;28;20439;-65
2023/04/26 10:59:22;;;;;;;10.13;9.83;;;18.10;56.00;;;;;;5073822;28;20439;-64
2023/04/26 11:01:49;;;;;;;9.57;9.13;;;18.10;56.00;;;;;;5073962;28;20439;-65
2023/04/26 11:04:16;;;;;;;9.37;9.17;;;18.10;55.90;;;;;;5073832;28;20463;-65
2023/04/26 11:06:50;;;;;;;9.83;9.63;;;18.10;55.90;;;;;;5073678;28;20442;-65
2023/04/26 11:09:38;;;;;;;9.30;9.10;;;18.10;55.90;;;;;;5073728;28;20790;-65
2023/04/26 11:12:11;;;;;;;9.17;8.97;;;18.10;55.90;;;;;;5073793;28;20443;-65
2023/04/26 11:14:38;;;;;;;10.20;9.77;;;18.10;55.90;;;;;;5073507;28;21012;-65
2023/04/26 11:17:05;;;;;;;9.70;9.50;;;18.10;55.80;;;;;;5072671;28;20522;-66
2023/04/26 11:19:32;;;;;;;9.00;8.80;;;18.10;55.80;;;;;;5073426;28;20475;-66
2023/04/26 11:22:00;;;;;;;9.30;9.10;;;18.20;55.80;;;;;;5073652;28;20471;-66
2023/04/26 11:24:27;;;;;;;9.30;9.10;;;18.10;55.70;;;;;;5073297;28;20981;-66
2023/04/26 11:26:54;;;;;;;9.53;9.33;;;18.10;55.70;;;;;;5073398;28;20475;-66
2023/04/26 11:29:22;;;;;;;9.80;9.60;;;18.10;55.70;;;;;;5073372;28;20502;-66
2023/04/26 11:31:53;;;;;;;9.10;8.73;;;18.10;55.70;;;;;;5073310;28;20487;-66
2023/04/26 11:34:23;;;;;;;9.90;9.70;;;18.10;55.60;;;;;;5073425;28;20521;-67
2023/04/26 11:36:52;;;;;;;10.07;9.80;;;18.10;55.60;;;;;;5073230;28;20466;-66
2023/04/26 11:39:23;;;;;;;9.73;9.53;;;18.10;55.60;;;;;;5073170;28;20443;-65
2023/04/26 11:41:50;;;;;;;9.80;9.50;;;18.10;55.60;;;;;;5073100;28;20518;-65
2023/04/26 11:44:22;;;;;;;9.30;9.10;;;18.10;55.60;;;;;;5097921;22;20537;-67
2023/04/26 11:46:49;;;;;;;9.47;9.27;;;18.10;56.10;;;;;;5084682;28;20607;-66
2023/04/26 11:49:17;;;;;;;9.30;9.10;;;18.10;55.60;;;;;;5093320;28;20503;-66
2023/04/26 11:51:47;;;;;;;9.03;8.83;;;18.10;55.50;;;;;;5093174;28;20861;-66
2023/04/26 11:54:27;;;;;;;8.97;8.70;;;18.10;55.50;;;;;;5093111;28;20894;-66
2023/04/26 11:56:55;;;;;;;8.60;8.40;;;18.20;55.50;;;;;;5093061;28;20443;-66
2023/04/26 11:59:25;;;;;;;8.30;8.17;;;18.10;55.50;;;;;;5093057;28;20803;-66
2023/04/26 12:01:53;;;;;;;8.53;8.33;;;18.20;55.50;;;;;;5092993;28;20506;-66
2023/04/26 12:04:20;;;;;;;8.80;8.50;;;18.20;55.50;;;;;;5093059;28;20497;-66
2023/04/26 12:06:48;;;;;;;8.57;8.37;;;18.20;55.50;;;;;;5092679;28;20503;-66
2023/04/26 12:09:16;;;;;;;8.90;8.60;;;18.20;55.50;;;;;;5092822;28;20481;-66
2023/04/26 12:11:48;;;;;;;8.40;8.20;;;18.20;55.50;;;;;;5093165;28;20442;-66
2023/04/26 12:14:16;;;;;;;9.10;8.90;;;18.20;55.40;;;;;;5092667;28;20462;-66
2023/04/26 12:16:46;;;;;;;9.03;8.83;;;18.20;55.30;;;;;;5092644;28;20963;-66
2023/04/26 12:19:13;;;;;;;8.63;8.43;;;18.20;55.30;;;;;;5092499;28;20477;-66
2023/04/26 12:21:43;;;;;;;8.63;8.43;;;18.20;55.30;;;;;;5092283;28;20520;-66
2023/04/26 12:24:24;;;;;;;9.00;8.80;;;18.20;55.20;;;;;;5092524;28;20506;-66
2023/04/26 12:26:52;;;;;;;9.73;9.53;;;18.20;55.20;;;;;;5092465;28;20881;-66
2023/04/26 12:29:19;;;;;;;9.20;9.00;;;18.20;55.10;;;;;;5092526;28;20545;-66
2023/04/26 12:31:47;;;;;;;9.70;9.40;;;18.20;55.20;;;;;;5092604;28;20530;-67
2023/04/26 12:34:14;;;;;;;9.87;9.67;;;18.20;55.10;;;;;;5092360;28;20527;-67
2023/04/26 12:36:43;;;;;;;9.47;9.27;;;18.20;55.10;;;;;;5092244;28;20530;-67
2023/04/26 12:39:12;;;;;;;8.67;8.47;;;18.20;55.10;;;;;;5092352;28;20817;-67
2023/04/26 12:41:39;;;;;;;9.17;8.97;;;18.20;55.10;;;;;;5092191;28;20489;-66
2023/04/26 12:44:06;;;;;;;8.70;8.50;;;18.20;55.10;;;;;;5092086;28;20509;-67
2023/04/26 12:46:32;;;;;;;8.90;8.70;;;18.30;55.20;;;;;;5092124;28;20474;-66
2023/04/26 12:49:01;;;;;;;8.83;8.63;;;18.20;55.10;;;;;;5092238;28;20876;-66